Doddington, United Kingdom
Current Conditions -  °F | °C
As of 9:23 PM on Wednesday 26 Nov 2014 (Local Time) from EGUN Reporting Station
Moderate Fog Moderate Fog  
Wind Chill: 48°   Ceiling: 100
Heat Index: 48°   Visibility: 0.25mi
Dew Point: 46°   Wind: 0mph
Humidity: 93%   Direction: NA
Pressure: 29.77"   Gusts: NA
Location:  52.5°N, 0.06°E
Report Text: EGUN 262123Z AUTO 00000KT 0400 R11/0250 FG VV001 09/08 A2977 RMK AO2 $
Loading
Personal Weather Stations






























Interactive Weather Map New forecast layout! Learn more

10-Day Weather Forecast

Advertisements
Track Severe Weather on mobile